Time;durP1;ratioP1;P1;durP2;ratioP2;P2;SDS_P1;SDS_P2;PMS_P1;PMS_P2;Temp;Humidity;BMP_temperature;BMP_pressure;BME280_temperature;BME280_humidity;BME280_pressure;Samples;Min_cycle;Max_cycle;Signal;HPM_P1;HPM_P2
2022/11/28 00:01:19;;;;;;;25.60;18.15;;;6.10;99.90;;;;;;5032937;28;20061;-52
2022/11/28 00:03:45;;;;;;;29.30;19.27;;;6.60;99.90;;;;;;5038650;28;20091;-50
2022/11/28 00:06:11;;;;;;;31.35;18.40;;;6.70;99.90;;;;;;5014126;28;20049;-51
2022/11/28 00:08:37;;;;;;;30.58;20.67;;;;;;;;;;5038455;28;20044;-50
2022/11/28 00:11:03;;;;;;;28.42;18.95;;;;;;;;;;5021223;28;20049;-52
2022/11/28 00:13:29;;;;;;;31.70;19.55;;;;;;;;;;5037274;28;20521;-50
2022/11/28 00:15:59;;;;;;;30.52;19.23;;;;;;;;;;5037912;28;20045;-50
2022/11/28 00:18:25;;;;;;;30.77;19.27;;;;;;;;;;5002179;28;20056;-51
2022/11/28 00:20:52;;;;;;;34.83;21.45;;;;;;;;;;5040736;28;20403;-52
2022/11/28 00:23:18;;;;;;;34.17;20.25;;;;;;;;;;5035392;28;20635;-51
2022/11/28 00:25:44;;;;;;;30.83;20.27;;;;;;;;;;5021312;28;20029;-51
2022/11/28 00:28:10;;;;;;;30.70;19.60;;;;;;;;;;5033906;28;20030;-52
2022/11/28 00:30:37;;;;;;;29.30;20.48;;;;;;;;;;5036966;28;20041;-50
2022/11/28 00:33:03;;;;;;;30.50;19.58;;;;;;;;;;5033369;28;20096;-51
2022/11/28 00:35:29;;;;;;;34.53;20.63;;;;;;;;;;5036315;28;20133;-51
2022/11/28 00:37:55;;;;;;;30.77;19.02;;;;;;;;;;5040222;28;20039;-48
2022/11/28 00:40:21;;;;;;;29.88;19.63;;;;;;;;;;5017269;28;20128;-49
2022/11/28 00:42:47;;;;;;;35.40;21.80;;;;;;;;;;5038528;28;20039;-49
2022/11/28 00:45:13;;;;;;;35.95;20.60;;;;;;;;;;5040071;28;20032;-49
2022/11/28 00:47:38;;;;;;;37.38;23.42;;;6.70;99.90;;;;;;5040612;28;20091;-50
2022/11/28 00:50:05;;;;;;;34.00;21.88;;;;;;;;;;5033231;28;20034;-51
2022/11/28 00:52:32;;;;;;;34.83;20.85;;;;;;;;;;5035787;28;20451;-50
2022/11/28 00:54:58;;;;;;;32.67;21.52;;;;;;;;;;5031082;28;20525;-49
2022/11/28 00:57:24;;;;;;;39.33;21.90;;;;;;;;;;5034358;28;20038;-48
2022/11/28 00:59:49;;;;;;;36.67;22.30;;;6.70;99.90;;;;;;5037886;28;20352;-48
2022/11/28 01:02:15;;;;;;;38.30;23.42;;;6.60;99.90;;;;;;5033766;28;20076;-48
2022/11/28 01:04:41;;;;;;;38.65;22.55;;;;;;;;;;5035616;28;20048;-48
2022/11/28 01:07:07;;;;;;;34.83;22.38;;;;;;;;;;5032322;28;20037;-49
2022/11/28 01:09:33;;;;;;;33.88;21.77;;;;;;;;;;5035000;28;20388;-49
2022/11/28 01:11:59;;;;;;;30.45;20.55;;;;;;;;;;5039402;28;20052;-50
2022/11/28 01:14:25;;;;;;;34.60;21.70;;;;;;;;;;5034588;28;20041;-52
2022/11/28 01:16:51;;;;;;;42.08;24.23;;;;;;;;;;5036188;28;20048;-50
2022/11/28 01:19:17;;;;;;;32.47;19.45;;;;;;;;;;5050455;28;20037;-52
2022/11/28 01:21:44;;;;;;;37.22;19.55;;;;;;;;;;5035480;28;20045;-48
2022/11/28 01:24:10;;;;;;;33.58;21.92;;;;;;;;;;5040349;28;20041;-49
2022/11/28 01:26:38;;;;;;;33.22;19.60;;;6.30;99.90;;;;;;5017368;28;20045;-50
2022/11/28 01:29:03;;;;;;;31.45;20.55;;;6.90;99.90;;;;;;5022132;28;20049;-48
2022/11/28 01:31:29;;;;;;;31.70;20.13;;;6.80;99.90;;;;;;5034424;28;20076;-49
2022/11/28 01:33:55;;;;;;;32.75;21.05;;;6.80;99.90;;;;;;5015299;28;20037;-48
2022/11/28 01:36:22;;;;;;;34.13;19.80;;;6.80;99.90;;;;;;5041951;28;20044;-52
2022/11/28 01:38:48;;;;;;;33.15;20.42;;;6.80;99.90;;;;;;5042930;28;20037;-51
2022/11/28 01:41:16;;;;;;;31.50;18.90;;;;;;;;;;5039034;28;20040;-49
2022/11/28 01:44:03;;;;;;;35.90;20.85;;;7.40;99.90;;;;;;5032047;28;20041;-48
2022/11/28 01:46:30;;;;;;;35.65;20.90;;;;;;;;;;5045767;28;20525;-52
2022/11/28 01:48:59;;;;;;;31.67;20.30;;;;;;;;;;5029703;28;20628;-48
2022/11/28 01:51:25;;;;;;;31.48;20.73;;;;;;;;;;5037110;28;20617;-48
2022/11/28 01:53:51;;;;;;;34.90;21.13;;;6.80;99.90;;;;;;5037581;28;20052;-49
2022/11/28 01:56:22;;;;;;;34.33;20.23;;;6.90;99.90;;;;;;5034238;28;20077;-51
2022/11/28 01:58:51;;;;;;;35.35;21.73;;;6.90;99.90;;;;;;5036868;28;20498;-51
2022/11/28 02:01:18;;;;;;;35.10;21.65;;;7.10;99.90;;;;;;5032532;28;20136;-49
2022/11/28 02:03:47;;;;;;;36.13;22.42;;;6.60;99.90;;;;;;5047436;28;20041;-49
2022/11/28 02:06:13;;;;;;;30.48;19.50;;;;;;;;;;5033292;28;20038;-49
2022/11/28 02:08:39;;;;;;;39.80;22.98;;;;;;;;;;5100006;22;20132;-64
2022/11/28 02:11:19;;;;;;;35.28;21.67;;;;;;;;;;5052014;28;20044;-64
2022/11/28 02:14:02;;;;;;;32.55;20.52;;;;;;;;;;5052034;28;20124;-64
2022/11/28 02:16:34;;;;;;;41.00;22.98;;;;;;;;;;5061012;28;20042;-64
2022/11/28 02:19:23;;;;;;;33.95;19.33;;;;;;;;;;5063769;28;20078;-64
2022/11/28 02:22:21;;;;;;;33.53;21.83;;;7.10;99.90;;;;;;5054737;28;20080;-65
2022/11/28 02:25:29;;;;;;;35.63;23.38;;;6.90;99.90;;;;;;5044216;28;20049;-65
2022/11/28 02:27:55;;;;;;;34.70;22.80;;;;;;;;;;5055767;28;20037;-65
2022/11/28 02:30:41;;;;;;;33.10;20.60;;;;;;;;;;5058805;28;20109;-65
2022/11/28 02:33:19;;;;;;;34.40;21.17;;;;;;;;;;5029947;28;20080;-65
2022/11/28 02:36:04;;;;;;;43.73;25.03;;;;;;;;;;5059456;28;20041;-65
2022/11/28 02:38:57;;;;;;;39.28;24.00;;;7.10;99.90;;;;;;5062553;28;20434;-65
2022/11/28 02:41:42;;;;;;;41.92;24.35;;;6.90;99.90;;;;;;5059225;28;20024;-65
2022/11/28 02:44:08;;;;;;;;;;;;;;;;;;5059492;28;20029;-65
2022/11/28 02:46:34;;;;;;;37.92;22.13;;;;;;;;;;5061034;28;20533;-65
2022/11/28 02:49:21;;;;;;;37.88;23.98;;;;;;;;;;5051812;28;20044;-65
2022/11/28 02:51:54;;;;;;;41.95;24.33;;;6.90;99.90;;;;;;5057761;28;20497;-65
2022/11/28 02:54:21;;;;;;;42.35;23.65;;;;;;;;;;5059539;28;20052;-65
2022/11/28 02:56:52;;;;;;;39.60;23.77;;;;;;;;;;5059979;28;20041;-65
2022/11/28 02:59:54;;;;;;;44.25;25.88;;;6.80;99.90;;;;;;5063301;28;20091;-65
2022/11/28 03:02:27;;;;;;;37.63;22.85;;;;;;;;;;5025650;28;20498;-65
2022/11/28 03:05:18;;;;;;;46.33;26.20;;;6.20;99.90;;;;;;5048726;28;20053;-65
2022/11/28 03:08:03;;;;;;;39.75;25.30;;;;;;;;;;5064458;28;20051;-65
2022/11/28 03:10:37;;;;;;;42.15;24.73;;;;;;;;;;5059759;28;20520;-65
2022/11/28 03:13:18;;;;;;;44.83;24.67;;;;;;;;;;5051971;28;20045;-65
2022/11/28 03:16:04;;;;;;;38.95;23.35;;;;;;;;;;5059214;28;20401;-65
2022/11/28 03:18:42;;;;;;;43.80;25.73;;;6.90;99.90;;;;;;5055777;28;20029;-65
2022/11/28 03:21:34;;;;;;;42.95;24.42;;;;;;;;;;5054579;28;20051;-65
2022/11/28 03:24:05;;;;;;;43.00;23.98;;;7.10;99.90;;;;;;5061489;28;20056;-65
2022/11/28 03:26:47;;;;;;;38.47;24.10;;;;;;;;;;5056001;28;20033;-65
2022/11/28 03:29:28;;;;;;;41.63;24.30;;;;;;;;;;5058810;28;20044;-65
2022/11/28 03:31:57;;;;;;;44.20;25.30;;;6.90;99.90;;;;;;5052193;28;20120;-65
2022/11/28 03:34:30;;;;;;;36.67;23.23;;;7.00;99.90;;;;;;5057271;28;20497;-65
2022/11/28 03:37:14;;;;;;;40.95;25.05;;;7.30;99.90;;;;;;5058748;28;20033;-65
2022/11/28 03:39:43;;;;;;;44.80;26.38;;;;;;;;;;5055815;28;20051;-65
2022/11/28 03:42:12;;;;;;;42.35;24.33;;;;;;;;;;5057567;28;20043;-65
2022/11/28 03:44:42;;;;;;;43.33;24.23;;;;;;;;;;5055384;28;20032;-65
2022/11/28 03:47:08;;;;;;;41.88;25.80;;;;;;;;;;5057016;28;20453;-65
2022/11/28 03:49:42;;;;;;;44.72;26.50;;;;;;;;;;5053487;28;20051;-65
2022/11/28 03:52:13;;;;;;;38.10;24.48;;;;;;;;;;5056904;28;20048;-65
2022/11/28 03:54:39;;;;;;;44.75;25.55;;;;;;;;;;5066578;28;20473;-65
2022/11/28 03:57:16;;;;;;;44.10;24.70;;;6.60;99.90;;;;;;5055175;28;20037;-65
2022/11/28 03:59:44;;;;;;;40.15;24.15;;;;;;;;;;5057995;28;20040;-65
2022/11/28 04:02:21;;;;;;;38.13;23.92;;;7.00;99.90;;;;;;5057338;28;20039;-65
2022/11/28 04:04:47;;;;;;;43.38;24.95;;;;;;;;;;5057747;28;20684;-65
2022/11/28 04:07:23;;;;;;;39.15;23.35;;;;;;;;;;5063520;28;20116;-65
2022/11/28 04:09:52;;;;;;;43.88;24.45;;;;;;;;;;5068245;28;20053;-65
2022/11/28 04:12:29;;;;;;;43.60;24.83;;;7.10;99.90;;;;;;5065465;28;20044;-65
2022/11/28 04:15:02;;;;;;;41.45;23.88;;;6.90;99.90;;;;;;5059724;28;20044;-65
2022/11/28 04:17:45;;;;;;;40.08;22.35;;;;;;;;;;5072259;28;20116;-65
2022/11/28 04:20:36;;;;;;;40.03;22.92;;;7.10;99.90;;;;;;5071064;28;20064;-65
2022/11/28 04:23:06;;;;;;;38.80;22.40;;;;;;;;;;5070305;28;20496;-65
2022/11/28 04:25:35;;;;;;;39.72;21.80;;;;;;;;;;5064308;28;20043;-65
2022/11/28 04:28:06;;;;;;;37.63;22.65;;;7.40;99.90;;;;;;5066433;28;20107;-65
2022/11/28 04:30:32;;;;;;;37.22;22.77;;;;;;;;;;5059642;28;20091;-65
2022/11/28 04:33:02;;;;;;;37.97;23.55;;;;;;;;;;5060444;28;20375;-64
2022/11/28 04:35:38;;;;;;;41.35;22.92;;;7.30;99.90;;;;;;5055277;28;20128;-65
2022/11/28 04:38:05;;;;;;;40.35;22.95;;;;;;;;;;5058575;28;20094;-65
2022/11/28 04:40:32;;;;;;;35.35;19.95;;;;;;;;;;5071680;28;20036;-65
2022/11/28 04:43:01;;;;;;;36.28;21.83;;;;;;;;;;5053449;28;20517;-65
2022/11/28 04:45:31;;;;;;;36.88;22.15;;;;;;;;;;5070537;28;20389;-65
2022/11/28 04:47:57;;;;;;;39.97;23.25;;;7.10;99.90;;;;;;5057720;28;20102;-65
2022/11/28 04:50:25;;;;;;;36.80;20.20;;;;;;;;;;5067473;28;20044;-64
2022/11/28 04:52:55;;;;;;;37.47;20.90;;;;;;;;;;5051020;28;20046;-65
2022/11/28 04:55:40;;;;;;;37.33;21.35;;;7.20;99.90;;;;;;5063219;28;20043;-65
2022/11/28 04:58:12;;;;;;;;;;;7.20;99.90;;;;;;5071137;28;20052;-65
2022/11/28 05:00:38;;;;;;;38.03;21.67;;;7.30;99.90;;;;;;5060721;28;19915;-65
2022/11/28 05:03:05;;;;;;;40.97;22.80;;;7.30;99.90;;;;;;5063678;28;20375;-65
2022/11/28 05:05:31;;;;;;;34.00;20.95;;;;;;;;;;5051478;28;20078;-65
2022/11/28 05:07:58;;;;;;;45.85;25.20;;;7.30;99.90;;;;;;5061522;28;20063;-65
2022/11/28 05:10:24;;;;;;;40.38;22.65;;;;;;;;;;5065451;28;20129;-65
2022/11/28 05:12:50;;;;;;;40.55;24.38;;;;;;;;;;5062303;28;20084;-65
2022/11/28 05:15:17;;;;;;;40.47;22.75;;;7.40;99.90;;;;;;5061923;28;20130;-65
2022/11/28 05:17:45;;;;;;;36.58;21.50;;;7.40;99.90;;;;;;5054986;28;20053;-65
2022/11/28 05:20:11;;;;;;;38.30;22.10;;;;;;;;;;5066082;28;20029;-65
2022/11/28 05:22:37;;;;;;;33.88;20.90;;;;;;;;;;5070328;28;20043;-65
2022/11/28 05:25:03;;;;;;;37.33;21.00;;;;;;;;;;5059488;28;20044;-65
2022/11/28 05:27:29;;;;;;;35.90;22.20;;;;;;;;;;5059236;28;20094;-65
2022/11/28 05:29:55;;;;;;;35.92;21.50;;;;;;;;;;5053692;28;20473;-65
2022/11/28 05:32:21;;;;;;;44.63;24.45;;;;;;;;;;5063177;28;20094;-65
2022/11/28 05:34:47;;;;;;;30.90;19.42;;;7.40;99.90;;;;;;5054098;28;20072;-65
2022/11/28 05:37:13;;;;;;;35.63;20.52;;;7.50;99.90;;;;;;5049837;28;20080;-65
2022/11/28 05:39:38;;;;;;;37.97;21.67;;;;;;;;;;5061158;28;20043;-65
2022/11/28 05:42:05;;;;;;;42.70;24.50;;;;;;;;;;5069070;28;20181;-65
2022/11/28 05:44:31;;;;;;;39.70;22.42;;;;;;;;;;5066699;28;20036;-65
2022/11/28 05:46:57;;;;;;;36.90;20.90;;;;;;;;;;5056157;28;20529;-65
2022/11/28 05:49:24;;;;;;;42.65;23.38;;;7.50;99.90;;;;;;5071782;28;20036;-65
2022/11/28 05:51:49;;;;;;;40.38;22.33;;;7.60;99.90;;;;;;5066476;28;20040;-66
2022/11/28 05:54:15;;;;;;;43.40;24.20;;;;;;;;;;5071622;28;20029;-65
2022/11/28 05:56:41;;;;;;;37.63;20.08;;;;;;;;;;5072913;28;20052;-66
2022/11/28 05:59:07;;;;;;;37.15;21.08;;;;;;;;;;5049734;28;20029;-66
2022/11/28 06:01:33;;;;;;;39.75;21.25;;;;;;;;;;5060162;28;20044;-66
2022/11/28 06:03:59;;;;;;;35.83;22.02;;;;;;;;;;5056620;28;20040;-66
2022/11/28 06:06:31;;;;;;;38.03;20.92;;;7.20;99.90;;;;;;5052511;28;20076;-66
2022/11/28 06:08:57;;;;;;;34.38;18.80;;;7.60;99.90;;;;;;5068834;28;20427;-66
2022/11/28 06:11:25;;;;;;;30.50;19.27;;;7.60;99.90;;;;;;5071438;28;20097;-66
2022/11/28 06:13:51;;;;;;;32.25;18.30;;;;;;;;;;5066118;28;20450;-65
2022/11/28 06:16:19;;;;;;;28.33;17.77;;;7.60;99.90;;;;;;5064347;28;20051;-65
2022/11/28 06:18:46;;;;;;;29.00;17.58;;;;;;;;;;5063690;28;20047;-65
2022/11/28 06:21:13;;;;;;;32.45;18.13;;;;;;;;;;5071680;28;20036;-65
2022/11/28 06:23:39;;;;;;;27.75;16.73;;;;;;;;;;5066590;28;20045;-65
2022/11/28 06:26:09;;;;;;;28.13;16.30;;;7.80;99.90;;;;;;5070768;28;20036;-66
2022/11/28 06:28:35;;;;;;;27.95;16.65;;;;;;;;;;5071126;28;20024;-66
2022/11/28 06:31:01;;;;;;;26.65;15.85;;;7.70;99.90;;;;;;5069153;28;20036;-66
2022/11/28 06:33:27;;;;;;;28.15;16.05;;;7.70;99.90;;;;;;5068634;28;20086;-66
2022/11/28 06:35:58;;;;;;;27.02;16.13;;;;;;;;;;5069603;28;20052;-66
2022/11/28 06:38:24;;;;;;;28.48;15.38;;;;;;;;;;5072011;28;20033;-66
2022/11/28 06:40:50;;;;;;;24.30;14.32;;;;;;;;;;5072944;28;20039;-66
2022/11/28 06:43:16;;;;;;;23.00;13.55;;;7.60;99.90;;;;;;5071459;28;20439;-66
2022/11/28 06:45:41;;;;;;;24.05;12.95;;;7.80;99.90;;;;;;5072538;28;20037;-66
2022/11/28 06:48:07;;;;;;;26.02;14.85;;;;;;;;;;5070236;28;20052;-66
2022/11/28 06:50:33;;;;;;;25.17;14.05;;;;;;;;;;5072384;28;20091;-66
2022/11/28 06:52:59;;;;;;;22.63;12.93;;;;;;;;;;5069638;28;20033;-66
2022/11/28 06:55:25;;;;;;;22.58;13.00;;;;;;;;;;5072275;28;20037;-66
2022/11/28 06:57:51;;;;;;;25.67;14.77;;;;;;;;;;5070299;28;20090;-66
2022/11/28 07:00:17;;;;;;;27.90;15.43;;;7.90;99.90;;;;;;5071464;28;20596;-66
2022/11/28 07:02:43;;;;;;;26.38;14.35;;;7.90;99.90;;;;;;5070587;28;20056;-66
2022/11/28 07:05:09;;;;;;;24.95;14.85;;;7.90;99.90;;;;;;5070331;28;20045;-66
2022/11/28 07:07:35;;;;;;;24.05;13.90;;;;;;;;;;5071434;28;20040;-66
2022/11/28 07:10:01;;;;;;;24.88;14.50;;;;;;;;;;5073623;28;20395;-66
2022/11/28 07:12:32;;;;;;;25.08;15.68;;;;;;;;;;5062679;28;20032;-66
2022/11/28 07:14:58;;;;;;;23.55;14.05;;;7.90;99.90;;;;;;5074664;28;20033;-65
2022/11/28 07:17:23;;;;;;;24.90;16.10;;;8.00;99.90;;;;;;5057787;28;20410;-65
2022/11/28 07:19:49;;;;;;;28.98;15.40;;;;;;;;;;5063706;28;20075;-65
2022/11/28 07:22:15;;;;;;;27.85;14.75;;;;;;;;;;5068387;28;20044;-65
2022/11/28 07:24:41;;;;;;;26.42;15.85;;;;;;;;;;5064629;28;20042;-65
2022/11/28 07:27:07;;;;;;;26.20;14.93;;;;;;;;;;5064780;28;20613;-65
2022/11/28 07:29:36;;;;;;;27.10;15.63;;;8.00;99.90;;;;;;5062318;28;20040;-65
2022/11/28 07:32:04;;;;;;;31.10;16.05;;;;;;;;;;5063217;28;20477;-65
2022/11/28 07:34:30;;;;;;;27.33;16.95;;;8.00;99.90;;;;;;5061192;28;20062;-66
2022/11/28 07:36:56;;;;;;;30.05;16.10;;;;;;;;;;5062391;28;20490;-66
2022/11/28 07:39:21;;;;;;;28.10;15.70;;;7.90;99.90;;;;;;5070522;28;20037;-65
2022/11/28 07:41:47;;;;;;;27.80;16.27;;;;;;;;;;5062785;28;20074;-65
2022/11/28 07:44:16;;;;;;;28.58;16.30;;;;;;;;;;5064910;28;20041;-66
2022/11/28 07:46:43;;;;;;;29.42;17.00;;;8.00;99.90;;;;;;5059690;28;20416;-65
2022/11/28 07:49:09;;;;;;;32.22;17.73;;;8.00;99.90;;;;;;5060132;28;20040;-66
2022/11/28 07:51:35;;;;;;;30.13;16.83;;;;;;;;;;5055837;28;20112;-65
2022/11/28 07:54:01;;;;;;;35.15;18.40;;;;;;;;;;5058117;28;20036;-65
2022/11/28 07:56:29;;;;;;;32.83;17.38;;;;;;;;;;5070064;28;20175;-65
2022/11/28 07:58:55;;;;;;;29.40;18.02;;;;;;;;;;5059722;28;20111;-66
2022/11/28 08:01:23;;;;;;;31.13;18.30;;;;;;;;;;5066343;28;20033;-66
2022/11/28 08:03:49;;;;;;;35.08;18.13;;;;;;;;;;5052027;28;20116;-66
2022/11/28 08:06:17;;;;;;;34.00;18.90;;;8.70;99.90;;;;;;5064229;28;20133;-66
2022/11/28 08:08:44;;;;;;;33.03;17.27;;;;;;;;;;5059062;22;20103;-68
2022/11/28 08:11:10;;;;;;;37.00;18.85;;;8.10;99.90;;;;;;5039001;28;20037;-68
2022/11/28 08:13:37;;;;;;;34.65;18.58;;;7.70;99.90;;;;;;5026896;28;20094;-68
2022/11/28 08:16:08;;;;;;;31.48;16.73;;;;;;;;;;5013784;28;20041;-68
2022/11/28 08:18:34;;;;;;;36.15;17.95;;;;;;;;;;5016353;28;20064;-70
2022/11/28 08:21:09;;;;;;;36.33;18.50;;;8.60;99.90;;;;;;5021589;28;20049;-70
2022/11/28 08:23:35;;;;;;;41.83;19.63;;;8.20;99.90;;;;;;5042798;28;20025;-70
2022/11/28 08:26:01;;;;;;;38.72;18.98;;;8.00;99.90;;;;;;5018435;28;20033;-70
2022/11/28 08:28:28;;;;;;;38.78;19.88;;;;;;;;;;5031751;28;20088;-70
2022/11/28 08:30:54;;;;;;;40.90;20.02;;;;;;;;;;5034122;28;20040;-71
2022/11/28 08:33:21;;;;;;;42.97;22.20;;;8.30;99.90;;;;;;5001635;28;20073;-70
2022/11/28 08:35:47;;;;;;;54.20;23.40;;;;;;;;;;5015186;28;20455;-70
2022/11/28 08:38:12;;;;;;;57.75;25.60;;;8.30;99.90;;;;;;5030999;28;20413;-70
2022/11/28 08:40:38;;;;;;;58.58;26.45;;;;;;;;;;5044439;28;20033;-70
2022/11/28 08:43:06;;;;;;;63.53;28.27;;;;;;;;;;5011704;28;20066;-70
2022/11/28 08:45:31;;;;;;;65.85;30.48;;;8.30;99.90;;;;;;5016269;28;20033;-70
2022/11/28 08:47:57;;;;;;;69.45;29.77;;;8.30;99.90;;;;;;5045993;28;20033;-70
2022/11/28 08:50:23;;;;;;;67.13;30.85;;;;;;;;;;5025000;28;20072;-70
2022/11/28 08:52:49;;;;;;;75.85;30.90;;;;;;;;;;5034284;28;20065;-70
2022/11/28 08:55:16;;;;;;;73.22;31.17;;;;;;;;;;5041980;28;20489;-70
2022/11/28 08:57:42;;;;;;;71.22;31.50;;;;;;;;;;5034117;28;20041;-70
2022/11/28 09:00:08;;;;;;;74.05;31.52;;;;;;;;;;5040705;28;20036;-70
2022/11/28 09:02:34;;;;;;;75.13;30.70;;;;;;;;;;5034461;28;20499;-70
2022/11/28 09:05:00;;;;;;;93.35;35.67;;;;;;;;;;5018552;28;20041;-70
2022/11/28 09:07:26;;;;;;;76.85;32.05;;;;;;;;;;5016308;28;20041;-70
2022/11/28 09:09:51;;;;;;;79.72;32.75;;;8.50;99.90;;;;;;5040284;28;20088;-70
2022/11/28 09:12:17;;;;;;;100.13;34.92;;;8.50;99.90;;;;;;5033976;28;20041;-70
2022/11/28 09:14:43;;;;;;;78.57;32.13;;;;;;;;;;5037162;28;20098;-70
2022/11/28 09:17:09;;;;;;;76.28;31.80;;;;;;;;;;5017333;28;20418;-70
2022/11/28 09:19:35;;;;;;;82.28;33.80;;;;;;;;;;5029009;28;20133;-70
2022/11/28 09:22:01;;;;;;;87.05;34.13;;;;;;;;;;5011983;28;20603;-70
2022/11/28 09:24:27;;;;;;;75.95;31.77;;;;;;;;;;5039879;28;20483;-70
2022/11/28 09:26:53;;;;;;;80.43;32.15;;;8.50;99.90;;;;;;4987830;28;20037;-70
2022/11/28 09:29:18;;;;;;;84.78;34.50;;;8.50;99.90;;;;;;5046789;28;20044;-70
2022/11/28 09:31:44;;;;;;;78.40;32.55;;;;;;;;;;5019304;28;20045;-70
2022/11/28 09:34:10;;;;;;;92.85;37.17;;;;;;;;;;5031214;28;20037;-70
2022/11/28 09:36:36;;;;;;;80.45;35.70;;;;;;;;;;5049715;28;20134;-70
2022/11/28 09:39:03;;;;;;;96.00;36.80;;;;;;;;;;5027116;28;20268;-68
2022/11/28 09:41:48;;;;;;;80.78;33.80;;;9.10;99.90;;;;;;5024060;28;20462;-69
2022/11/28 09:44:18;;;;;;;87.00;34.47;;;;;;;;;;5043575;28;20040;-69
2022/11/28 09:46:45;;;;;;;82.43;31.80;;;;;;;;;;5027048;28;20428;-69
2022/11/28 09:49:33;;;;;;;80.63;34.25;;;;;;;;;;5049635;28;20492;-69
2022/11/28 09:52:04;;;;;;;72.05;31.38;;;;;;;;;;5028055;28;20037;-69
2022/11/28 09:55:07;;;;;;;86.38;32.90;;;8.40;99.90;;;;;;5022651;28;20048;-69
2022/11/28 09:57:39;;;;;;;92.38;33.83;;;;;;;;;;5034342;28;20048;-69
2022/11/28 10:00:16;;;;;;;73.00;31.30;;;8.70;99.90;;;;;;5038276;28;20086;-69
2022/11/28 10:02:54;;;;;;;79.93;32.30;;;;;;;;;;5033221;28;20116;-68
2022/11/28 10:05:40;;;;;;;74.03;31.50;;;;;;;;;;5033966;28;20216;-68
2022/11/28 10:08:41;;;;;;;74.35;30.08;;;8.50;99.90;;;;;;5025377;28;20041;-68
2022/11/28 10:11:15;;;;;;;87.47;34.47;;;8.60;99.90;;;;;;5037404;28;20422;-69
2022/11/28 10:14:05;;;;;;;74.88;31.35;;;9.20;99.90;;;;;;5020232;28;20060;-69
2022/11/28 10:16:40;;;;;;;68.78;29.60;;;;;;;;;;5033205;28;20103;-69
2022/11/28 10:19:10;;;;;;;65.00;29.30;;;;;;;;;;5031472;28;20272;-68
2022/11/28 10:21:43;;;;;;;75.68;30.33;;;8.60;99.90;;;;;;5040877;28;20114;-68
2022/11/28 10:24:19;;;;;;;53.28;24.45;;;8.70;99.90;;;;;;5037314;28;20113;-68
2022/11/28 10:26:52;;;;;;;59.78;26.17;;;8.90;99.90;;;;;;5040018;28;20055;-68
2022/11/28 10:29:25;;;;;;;52.28;24.25;;;;;;;;;;5021177;28;20033;-68
2022/11/28 10:31:56;;;;;;;47.63;21.58;;;8.80;99.90;;;;;;5025432;28;20041;-69
2022/11/28 10:34:39;;;;;;;48.95;23.50;;;;;;;;;;5034970;28;20045;-69
2022/11/28 10:37:24;;;;;;;50.25;23.25;;;;;;;;;;5020437;28;20049;-69
2022/11/28 10:39:50;;;;;;;52.60;25.08;;;;;;;;;;5052023;28;20061;-69
2022/11/28 10:42:21;;;;;;;55.00;24.98;;;9.30;99.90;;;;;;5048609;28;20040;-70
2022/11/28 10:44:47;;;;;;;65.35;26.90;;;;;;;;;;5026699;28;20030;-69
2022/11/28 10:47:22;;;;;;;57.05;25.90;;;;;;;;;;5046193;28;20068;-69
2022/11/28 10:50:01;;;;;;;60.90;25.70;;;9.50;99.90;;;;;;5040733;28;20053;-68
2022/11/28 10:52:50;;;;;;;55.60;26.38;;;8.40;99.90;;;;;;5049528;28;20037;-69
2022/11/28 10:55:19;;;;;;;49.10;22.33;;;8.90;99.90;;;;;;5033697;28;20417;-69
2022/11/28 10:58:04;;;;;;;56.15;25.58;;;;;;;;;;5040795;28;20046;-70
2022/11/28 11:00:30;;;;;;;;;;;;;;;;;;5030213;28;20048;-69
2022/11/28 11:02:56;;;;;;;57.83;24.75;;;;;;;;;;5016290;28;19917;-69
2022/11/28 11:05:29;;;;;;;53.50;24.35;;;;;;;;;;5038058;28;20508;-69
2022/11/28 11:07:57;;;;;;;59.08;26.50;;;9.00;99.90;;;;;;5032581;28;20446;-68
2022/11/28 11:10:26;;;;;;;67.60;26.50;;;;;;;;;;5043553;28;20044;-68
2022/11/28 11:12:52;;;;;;;59.88;27.15;;;;;;;;;;5040890;28;20069;-69
2022/11/28 11:15:23;;;;;;;69.10;29.52;;;;;;;;;;5039212;28;20033;-69
2022/11/28 11:17:49;;;;;;;66.80;30.15;;;8.90;99.90;;;;;;5034996;28;20037;-69
2022/11/28 11:20:27;;;;;;;67.47;29.08;;;9.00;99.90;;;;;;5026738;28;20116;-69
2022/11/28 11:22:55;;;;;;;82.15;32.22;;;;;;;;;;5042540;28;20041;-69
2022/11/28 11:25:23;;;;;;;72.07;29.90;;;9.20;99.90;;;;;;5019275;28;20041;-69
2022/11/28 11:27:59;;;;;;;63.67;28.25;;;9.30;99.90;;;;;;5041399;28;20042;-69
2022/11/28 11:30:26;;;;;;;66.20;27.70;;;;;;;;;;5043966;28;20068;-69
2022/11/28 11:32:52;;;;;;;65.20;29.27;;;;;;;;;;5007195;28;20041;-69
2022/11/28 11:35:23;;;;;;;64.80;28.15;;;;;;;;;;5021808;28;20355;-68
2022/11/28 11:37:50;;;;;;;62.40;25.48;;;9.00;99.90;;;;;;5024274;28;20049;-68
2022/11/28 11:40:27;;;;;;;70.30;27.45;;;;;;;;;;5038769;28;20040;-69
2022/11/28 11:42:59;;;;;;;69.38;27.88;;;9.00;99.90;;;;;;5018191;28;20139;-69
2022/11/28 11:45:34;;;;;;;68.32;29.30;;;9.10;99.90;;;;;;5027143;28;20037;-68
2022/11/28 11:48:01;;;;;;;72.07;27.45;;;;;;;;;;5006994;28;20174;-69
2022/11/28 11:50:29;;;;;;;77.32;30.65;;;8.30;99.90;;;;;;5018382;28;20065;-69
2022/11/28 11:53:03;;;;;;;74.72;28.88;;;;;;;;;;5034950;28;20120;-68
2022/11/28 11:55:30;;;;;;;70.00;27.45;;;;;;;;;;5031960;28;20499;-69
2022/11/28 11:57:59;;;;;;;80.45;29.25;;;8.80;99.90;;;;;;5045391;28;20068;-69
2022/11/28 12:00:32;;;;;;;69.43;27.77;;;;;;;;;;5043312;28;20116;-68
2022/11/28 12:03:10;;;;;;;93.68;33.00;;;;;;;;;;5013079;28;20551;-69
2022/11/28 12:05:56;;;;;;;81.88;29.35;;;9.10;99.90;;;;;;5035414;28;20041;-69
2022/11/28 12:08:30;;;;;;;91.03;31.85;;;8.80;99.90;;;;;;5020876;28;20094;-69
2022/11/28 12:11:23;;;;;;;76.45;31.05;;;8.80;99.90;;;;;;5022485;28;20507;-69
2022/11/28 12:13:49;;;;;;;96.75;33.13;;;;;;;;;;5040585;28;20049;-68
2022/11/28 12:16:50;;;;;;;92.82;32.33;;;9.40;99.90;;;;;;5036524;28;20173;-69
2022/11/28 12:19:16;;;;;;;88.43;32.78;;;;;;;;;;5008183;28;20504;-69
2022/11/28 12:22:00;;;;;;;78.38;30.95;;;;;;;;;;5031542;28;20116;-68
2022/11/28 12:24:32;;;;;;;97.75;33.83;;;;;;;;;;5017752;28;20056;-68
2022/11/28 12:27:09;;;;;;;95.70;33.03;;;8.50;99.90;;;;;;5037881;28;20052;-68
2022/11/28 12:29:47;;;;;;;89.13;34.05;;;8.90;99.90;;;;;;5036199;28;20114;-69
2022/11/28 12:32:27;;;;;;;94.80;33.13;;;;;;;;;;5019774;28;20041;-69
2022/11/28 12:35:08;;;;;;;100.47;34.15;;;;;;;;;;5023105;28;20060;-68
2022/11/28 12:37:34;;;;;;;93.13;30.50;;;;;;;;;;5036333;28;20048;-69
2022/11/28 12:40:05;;;;;;;117.80;38.13;;;;;;;;;;5040612;28;20113;-69
2022/11/28 12:42:44;;;;;;;108.32;34.53;;;;;;;;;;5018681;28;20504;-69
2022/11/28 12:45:24;;;;;;;114.90;36.65;;;8.70;99.90;;;;;;5009112;28;20120;-69
2022/11/28 12:47:56;;;;;;;114.22;33.92;;;;;;;;;;5040245;28;20072;-69
2022/11/28 12:50:29;;;;;;;116.22;35.00;;;8.50;99.90;;;;;;5021425;28;20035;-68
2022/11/28 12:53:27;;;;;;;113.57;34.95;;;8.80;99.90;;;;;;5035703;28;20534;-69
2022/11/28 12:55:53;;;;;;;115.13;36.58;;;;;;;;;;4987777;28;20055;-68
2022/11/28 12:58:24;;;;;;;88.28;32.78;;;8.70;99.90;;;;;;5027547;28;20037;-69
2022/11/28 13:01:19;;;;;;;100.10;32.13;;;8.80;99.90;;;;;;5037982;28;20040;-69
2022/11/28 13:03:45;;;;;;;;;;;;;;;;;;5016039;28;20064;-69
2022/11/28 13:06:53;;;;;;;110.13;33.25;;;9.00;99.90;;;;;;5019126;28;19917;-69
2022/11/28 13:09:37;;;;;;;109.85;34.75;;;9.00;99.90;;;;;;5010811;28;20046;-69
2022/11/28 13:12:16;;;;;;;110.50;38.25;;;;;;;;;;5009340;28;20034;-69
2022/11/28 13:14:47;;;;;;;107.53;34.35;;;;;;;;;;5014515;28;20099;-69
2022/11/28 13:17:19;;;;;;;105.57;33.13;;;;;;;;;;5031276;28;20037;-70
2022/11/28 13:19:53;;;;;;;93.68;32.47;;;8.80;99.90;;;;;;5016194;28;20037;-69
2022/11/28 13:22:23;;;;;;;125.80;37.13;;;;;;;;;;5050302;28;20111;-69
2022/11/28 13:25:10;;;;;;;105.45;34.25;;;8.50;99.90;;;;;;5030444;28;20049;-70
2022/11/28 13:27:57;;;;;;;119.82;35.17;;;8.70;99.90;;;;;;5038124;28;20053;-69
2022/11/28 13:30:27;;;;;;;115.18;35.13;;;9.10;99.90;;;;;;5046141;28;20047;-69
2022/11/28 13:33:01;;;;;;;125.88;36.10;;;;;;;;;;5038755;28;20384;-69
2022/11/28 13:35:27;;;;;;;104.90;33.00;;;;;;;;;;5033313;28;20080;-69
2022/11/28 13:38:08;;;;;;;97.80;32.78;;;9.60;99.90;;;;;;5034778;28;20057;-69
2022/11/28 13:40:34;;;;;;;127.75;36.95;;;;;;;;;;5004276;28;20037;-69
2022/11/28 13:43:16;;;;;;;110.32;33.20;;;9.00;99.90;;;;;;5021517;28;20117;-69
2022/11/28 13:45:44;;;;;;;104.90;33.20;;;8.90;99.90;;;;;;5034697;28;20544;-69
2022/11/28 13:48:29;;;;;;;119.75;36.05;;;;;;;;;;5027417;28;20052;-69
2022/11/28 13:50:59;;;;;;;123.80;35.03;;;;;;;;;;5012805;28;20046;-69
2022/11/28 13:53:25;;;;;;;120.97;35.65;;;;;;;;;;5038109;28;20048;-69
2022/11/28 13:55:53;;;;;;;98.95;31.63;;;;;;;;;;5020498;28;20045;-69
2022/11/28 13:58:24;;;;;;;123.82;36.78;;;;;;;;;;5025351;28;20042;-69